sensor_id;sensor_type;location;lat;lon;timestamp;pressure;altitude;pressure_sealevel;temperature;humidity
77778;BME280;66966;-34.746;138.604;2023-04-25T00:01:16;102468.92;;;24.78;26.09
77778;BME280;66966;-34.746;138.604;2023-04-25T00:03:42;102473.82;;;24.42;25.83
77778;BME280;66966;-34.746;138.604;2023-04-25T00:06:07;102472.94;;;24.75;26.01
77778;BME280;66966;-34.746;138.604;2023-04-25T00:08:33;102470.24;;;24.89;25.95
77778;BME280;66966;-34.746;138.604;2023-04-25T00:10:58;102467.60;;;24.86;26.01
77778;BME280;66966;-34.746;138.604;2023-04-25T00:13:23;102466.35;;;25.03;26.10
77778;BME280;66966;-34.746;138.604;2023-04-25T00:15:48;102466.03;;;25.51;26.14
77778;BME280;66966;-34.746;138.604;2023-04-25T00:18:13;102460.77;;;25.59;25.45
77778;BME280;66966;-34.746;138.604;2023-04-25T00:20:39;102461.70;;;25.28;25.54
77778;BME280;66966;-34.746;138.604;2023-04-25T00:23:04;102464.13;;;25.42;25.42
77778;BME280;66966;-34.746;138.604;2023-04-25T00:25:29;102459.19;;;25.57;25.26
77778;BME280;66966;-34.746;138.604;2023-04-25T00:27:54;102458.88;;;25.76;25.08
77778;BME280;66966;-34.746;138.604;2023-04-25T00:30:19;102454.44;;;25.96;25.09
77778;BME280;66966;-34.746;138.604;2023-04-25T00:32:45;102453.30;;;26.29;24.74
77778;BME280;66966;-34.746;138.604;2023-04-25T00:35:11;102452.11;;;26.21;24.84
77778;BME280;66966;-34.746;138.604;2023-04-25T00:37:35;102450.00;;;26.31;24.86
77778;BME280;66966;-34.746;138.604;2023-04-25T00:40:00;102449.12;;;26.33;24.67
77778;BME280;66966;-34.746;138.604;2023-04-25T00:42:25;102441.77;;;26.29;24.29
77778;BME280;66966;-34.746;138.604;2023-04-25T00:44:52;102441.50;;;26.48;24.07
77778;BME280;66966;-34.746;138.604;2023-04-25T00:47:16;102436.17;;;26.67;23.92
77778;BME280;66966;-34.746;138.604;2023-04-25T00:49:41;102432.79;;;26.82;24.08
77778;BME280;66966;-34.746;138.604;2023-04-25T00:52:06;102425.98;;;26.97;23.56
77778;BME280;66966;-34.746;138.604;2023-04-25T00:54:31;102427.06;;;27.12;23.77
77778;BME280;66966;-34.746;138.604;2023-04-25T00:56:57;102416.94;;;27.31;23.49
77778;BME280;66966;-34.746;138.604;2023-04-25T00:59:22;102416.52;;;27.11;23.40
77778;BME280;66966;-34.746;138.604;2023-04-25T01:01:47;102418.17;;;27.41;23.43
77778;BME280;66966;-34.746;138.604;2023-04-25T01:04:13;102418.25;;;27.33;23.00
77778;BME280;66966;-34.746;138.604;2023-04-25T01:06:37;102414.94;;;27.39;23.04
77778;BME280;66966;-34.746;138.604;2023-04-25T01:09:03;102414.50;;;27.54;22.49
77778;BME280;66966;-34.746;138.604;2023-04-25T01:11:28;102412.23;;;27.74;23.03
77778;BME280;66966;-34.746;138.604;2023-04-25T01:13:53;102410.24;;;27.88;22.06
77778;BME280;66966;-34.746;138.604;2023-04-25T01:16:18;102406.79;;;27.71;22.56
77778;BME280;66966;-34.746;138.604;2023-04-25T01:18:43;102400.96;;;27.81;22.82
77778;BME280;66966;-34.746;138.604;2023-04-25T01:21:10;102402.57;;;27.91;22.79
77778;BME280;66966;-34.746;138.604;2023-04-25T01:23:34;102399.05;;;28.17;22.46
77778;BME280;66966;-34.746;138.604;2023-04-25T01:25:59;102397.14;;;27.94;21.84
77778;BME280;66966;-34.746;138.604;2023-04-25T01:28:24;102396.94;;;28.00;21.84
77778;BME280;66966;-34.746;138.604;2023-04-25T01:30:49;102396.69;;;27.95;21.58
77778;BME280;66966;-34.746;138.604;2023-04-25T01:33:15;102398.13;;;27.88;21.97
77778;BME280;66966;-34.746;138.604;2023-04-25T01:35:39;102397.98;;;28.18;21.79
77778;BME280;66966;-34.746;138.604;2023-04-25T01:38:04;102398.18;;;28.04;21.75
77778;BME280;66966;-34.746;138.604;2023-04-25T01:40:30;102393.66;;;27.81;22.04
77778;BME280;66966;-34.746;138.604;2023-04-25T01:42:55;102389.73;;;28.01;22.14
77778;BME280;66966;-34.746;138.604;2023-04-25T01:45:20;102389.61;;;27.98;22.04
77778;BME280;66966;-34.746;138.604;2023-04-25T01:47:45;102388.60;;;27.96;22.00
77778;BME280;66966;-34.746;138.604;2023-04-25T01:50:11;102384.91;;;27.70;21.89
77778;BME280;66966;-34.746;138.604;2023-04-25T01:52:35;102380.71;;;27.68;22.30
77778;BME280;66966;-34.746;138.604;2023-04-25T01:55:02;102377.60;;;27.75;22.30
77778;BME280;66966;-34.746;138.604;2023-04-25T01:57:26;102378.08;;;28.09;22.05
77778;BME280;66966;-34.746;138.604;2023-04-25T01:59:51;102375.83;;;27.87;22.03
77778;BME280;66966;-34.746;138.604;2023-04-25T02:02:16;102371.97;;;28.05;22.35
77778;BME280;66966;-34.746;138.604;2023-04-25T02:04:41;102368.54;;;27.79;22.32
77778;BME280;66966;-34.746;138.604;2023-04-25T02:07:06;102365.97;;;27.60;22.42
77778;BME280;66966;-34.746;138.604;2023-04-25T02:09:32;102367.57;;;28.10;23.31
77778;BME280;66966;-34.746;138.604;2023-04-25T02:11:57;102360.72;;;27.76;23.58
77778;BME280;66966;-34.746;138.604;2023-04-25T02:14:22;102357.44;;;27.81;23.59
77778;BME280;66966;-34.746;138.604;2023-04-25T02:16:47;102357.56;;;28.05;23.41
77778;BME280;66966;-34.746;138.604;2023-04-25T02:19:12;102354.93;;;27.82;23.16
77778;BME280;66966;-34.746;138.604;2023-04-25T02:21:37;102352.01;;;28.06;23.21
77778;BME280;66966;-34.746;138.604;2023-04-25T02:24:02;102346.51;;;28.24;22.78
77778;BME280;66966;-34.746;138.604;2023-04-25T02:26:27;102340.31;;;28.30;22.50
77778;BME280;66966;-34.746;138.604;2023-04-25T02:28:53;102334.82;;;27.86;22.61
77778;BME280;66966;-34.746;138.604;2023-04-25T02:31:18;102330.86;;;28.36;22.32
77778;BME280;66966;-34.746;138.604;2023-04-25T02:33:43;102326.46;;;27.99;22.54
77778;BME280;66966;-34.746;138.604;2023-04-25T02:36:08;102325.94;;;28.46;22.52
77778;BME280;66966;-34.746;138.604;2023-04-25T02:38:33;102323.38;;;28.51;22.57
77778;BME280;66966;-34.746;138.604;2023-04-25T02:40:58;102320.38;;;28.53;22.33
77778;BME280;66966;-34.746;138.604;2023-04-25T02:43:24;102317.10;;;28.49;22.14
77778;BME280;66966;-34.746;138.604;2023-04-25T02:45:49;102311.88;;;28.42;22.31
77778;BME280;66966;-34.746;138.604;2023-04-25T02:48:14;102306.00;;;28.42;22.48
77778;BME280;66966;-34.746;138.604;2023-04-25T02:50:39;102304.26;;;28.18;22.52
77778;BME280;66966;-34.746;138.604;2023-04-25T02:53:04;102296.64;;;28.29;22.26
77778;BME280;66966;-34.746;138.604;2023-04-25T02:55:29;102293.27;;;28.06;22.47
77778;BME280;66966;-34.746;138.604;2023-04-25T02:57:54;102288.60;;;28.01;22.25
77778;BME280;66966;-34.746;138.604;2023-04-25T03:00:19;102280.15;;;28.30;22.36
77778;BME280;66966;-34.746;138.604;2023-04-25T03:02:44;102275.59;;;28.41;22.28
77778;BME280;66966;-34.746;138.604;2023-04-25T03:05:10;102272.20;;;28.45;22.06
77778;BME280;66966;-34.746;138.604;2023-04-25T03:07:35;102268.84;;;28.21;21.93
77778;BME280;66966;-34.746;138.604;2023-04-25T03:10:00;102265.85;;;28.17;21.62
77778;BME280;66966;-34.746;138.604;2023-04-25T03:12:25;102260.63;;;28.26;21.89
77778;BME280;66966;-34.746;138.604;2023-04-25T03:14:50;102257.33;;;28.38;22.02
77778;BME280;66966;-34.746;138.604;2023-04-25T03:17:15;102248.96;;;28.29;21.98
77778;BME280;66966;-34.746;138.604;2023-04-25T03:19:41;102248.74;;;28.20;21.81
77778;BME280;66966;-34.746;138.604;2023-04-25T03:22:06;102244.26;;;28.53;21.86
77778;BME280;66966;-34.746;138.604;2023-04-25T03:24:31;102236.17;;;28.44;21.79
77778;BME280;66966;-34.746;138.604;2023-04-25T03:26:56;102230.35;;;28.89;21.61
77778;BME280;66966;-34.746;138.604;2023-04-25T03:29:21;102222.79;;;28.79;21.70
77778;BME280;66966;-34.746;138.604;2023-04-25T03:31:46;102221.97;;;29.13;21.36
77778;BME280;66966;-34.746;138.604;2023-04-25T03:34:11;102220.19;;;28.88;21.17
77778;BME280;66966;-34.746;138.604;2023-04-25T03:36:36;102213.90;;;29.21;20.95
77778;BME280;66966;-34.746;138.604;2023-04-25T03:39:01;102210.78;;;28.98;20.28
77778;BME280;66966;-34.746;138.604;2023-04-25T03:41:27;102207.09;;;29.29;20.39
77778;BME280;66966;-34.746;138.604;2023-04-25T03:43:52;102205.27;;;29.25;20.36
77778;BME280;66966;-34.746;138.604;2023-04-25T03:46:17;102204.88;;;29.41;20.22
77778;BME280;66966;-34.746;138.604;2023-04-25T03:48:42;102195.66;;;29.65;19.90
77778;BME280;66966;-34.746;138.604;2023-04-25T03:51:07;102193.90;;;29.70;20.12
77778;BME280;66966;-34.746;138.604;2023-04-25T03:53:32;102192.17;;;29.40;20.01
77778;BME280;66966;-34.746;138.604;2023-04-25T03:55:57;102189.65;;;29.64;19.80
77778;BME280;66966;-34.746;138.604;2023-04-25T03:58:22;102186.01;;;29.31;19.55
77778;BME280;66966;-34.746;138.604;2023-04-25T04:00:47;102183.77;;;29.44;19.18
77778;BME280;66966;-34.746;138.604;2023-04-25T04:03:12;102182.80;;;29.36;19.68
77778;BME280;66966;-34.746;138.604;2023-04-25T04:05:38;102176.28;;;29.42;19.77
77778;BME280;66966;-34.746;138.604;2023-04-25T04:08:03;102173.41;;;29.45;19.25
77778;BME280;66966;-34.746;138.604;2023-04-25T04:10:28;102167.99;;;29.45;19.42
77778;BME280;66966;-34.746;138.604;2023-04-25T04:12:53;102162.39;;;29.04;19.22
77778;BME280;66966;-34.746;138.604;2023-04-25T04:15:18;102156.30;;;29.30;19.47
77778;BME280;66966;-34.746;138.604;2023-04-25T04:17:43;102151.84;;;29.50;19.46
77778;BME280;66966;-34.746;138.604;2023-04-25T04:20:09;102143.86;;;29.56;18.81
77778;BME280;66966;-34.746;138.604;2023-04-25T04:22:33;102136.91;;;29.58;19.30
77778;BME280;66966;-34.746;138.604;2023-04-25T04:24:58;102131.25;;;29.66;19.17
77778;BME280;66966;-34.746;138.604;2023-04-25T04:27:24;102130.12;;;29.62;18.59
77778;BME280;66966;-34.746;138.604;2023-04-25T04:29:49;102123.87;;;29.95;17.70
77778;BME280;66966;-34.746;138.604;2023-04-25T04:32:15;102125.54;;;29.95;17.53
77778;BME280;66966;-34.746;138.604;2023-04-25T04:34:39;102129.57;;;29.99;18.13
77778;BME280;66966;-34.746;138.604;2023-04-25T04:37:04;102126.27;;;29.72;18.63
77778;BME280;66966;-34.746;138.604;2023-04-25T04:39:29;102122.72;;;29.72;18.39
77778;BME280;66966;-34.746;138.604;2023-04-25T04:41:54;102118.08;;;29.81;18.83
77778;BME280;66966;-34.746;138.604;2023-04-25T04:44:20;102117.26;;;29.91;18.96
77778;BME280;66966;-34.746;138.604;2023-04-25T04:46:44;102116.75;;;30.30;18.29
77778;BME280;66966;-34.746;138.604;2023-04-25T04:49:10;102114.62;;;29.91;18.51
77778;BME280;66966;-34.746;138.604;2023-04-25T04:51:34;102107.98;;;30.31;17.76
77778;BME280;66966;-34.746;138.604;2023-04-25T04:54:00;102103.89;;;30.42;18.09
77778;BME280;66966;-34.746;138.604;2023-04-25T04:56:25;102100.04;;;30.38;18.37
77778;BME280;66966;-34.746;138.604;2023-04-25T04:58:50;102098.59;;;30.35;18.41
77778;BME280;66966;-34.746;138.604;2023-04-25T05:01:15;102099.02;;;30.80;17.99
77778;BME280;66966;-34.746;138.604;2023-04-25T05:03:40;102095.42;;;30.81;17.20
77778;BME280;66966;-34.746;138.604;2023-04-25T05:06:05;102093.29;;;30.63;17.05
77778;BME280;66966;-34.746;138.604;2023-04-25T05:08:30;102093.57;;;30.96;17.65
77778;BME280;66966;-34.746;138.604;2023-04-25T05:10:55;102094.69;;;30.88;17.33
77778;BME280;66966;-34.746;138.604;2023-04-25T05:13:20;102092.13;;;30.83;17.23
77778;BME280;66966;-34.746;138.604;2023-04-25T05:15:45;102088.33;;;30.82;17.15
77778;BME280;66966;-34.746;138.604;2023-04-25T05:18:10;102088.69;;;30.40;17.28
77778;BME280;66966;-34.746;138.604;2023-04-25T05:20:36;102084.42;;;30.78;17.83
77778;BME280;66966;-34.746;138.604;2023-04-25T05:23:00;102077.93;;;30.60;17.65
77778;BME280;66966;-34.746;138.604;2023-04-25T05:25:25;102076.80;;;30.49;17.94
77778;BME280;66966;-34.746;138.604;2023-04-25T05:27:51;102078.01;;;30.36;17.95
77778;BME280;66966;-34.746;138.604;2023-04-25T05:30:16;102079.43;;;30.51;18.49
77778;BME280;66966;-34.746;138.604;2023-04-25T05:32:41;102080.60;;;30.40;18.32
77778;BME280;66966;-34.746;138.604;2023-04-25T05:35:06;102075.88;;;30.09;18.38
77778;BME280;66966;-34.746;138.604;2023-04-25T05:37:31;102073.87;;;29.96;17.91
77778;BME280;66966;-34.746;138.604;2023-04-25T05:39:56;102071.45;;;29.92;18.22
77778;BME280;66966;-34.746;138.604;2023-04-25T05:42:21;102073.75;;;30.14;18.07
77778;BME280;66966;-34.746;138.604;2023-04-25T05:44:46;102073.88;;;30.06;18.44
77778;BME280;66966;-34.746;138.604;2023-04-25T05:47:11;102074.69;;;29.80;18.65
77778;BME280;66966;-34.746;138.604;2023-04-25T05:49:36;102076.45;;;30.01;19.02
77778;BME280;66966;-34.746;138.604;2023-04-25T05:52:01;102074.44;;;29.74;19.17
77778;BME280;66966;-34.746;138.604;2023-04-25T05:54:27;102071.43;;;29.76;19.15
77778;BME280;66966;-34.746;138.604;2023-04-25T05:56:52;102070.47;;;29.98;18.95
77778;BME280;66966;-34.746;138.604;2023-04-25T05:59:17;102070.46;;;29.98;18.58
77778;BME280;66966;-34.746;138.604;2023-04-25T06:01:42;102067.45;;;29.71;18.29
77778;BME280;66966;-34.746;138.604;2023-04-25T06:04:07;102067.93;;;30.02;18.76
77778;BME280;66966;-34.746;138.604;2023-04-25T06:06:32;102069.05;;;30.04;18.89
77778;BME280;66966;-34.746;138.604;2023-04-25T06:08:58;102073.99;;;29.82;19.34
77778;BME280;66966;-34.746;138.604;2023-04-25T06:11:22;102068.80;;;30.14;18.28
77778;BME280;66966;-34.746;138.604;2023-04-25T06:13:47;102068.79;;;29.97;18.27
77778;BME280;66966;-34.746;138.604;2023-04-25T06:16:13;102062.24;;;30.31;18.20
77778;BME280;66966;-34.746;138.604;2023-04-25T06:18:38;102062.91;;;30.06;18.19
77778;BME280;66966;-34.746;138.604;2023-04-25T06:21:03;102066.07;;;29.79;18.18
77778;BME280;66966;-34.746;138.604;2023-04-25T06:23:28;102063.29;;;29.98;18.03
77778;BME280;66966;-34.746;138.604;2023-04-25T06:25:53;102063.10;;;30.30;17.83
77778;BME280;66966;-34.746;138.604;2023-04-25T06:28:18;102062.53;;;30.28;17.53
77778;BME280;66966;-34.746;138.604;2023-04-25T06:30:43;102058.48;;;29.98;17.77
77778;BME280;66966;-34.746;138.604;2023-04-25T06:33:09;102052.33;;;30.31;17.55
77778;BME280;66966;-34.746;138.604;2023-04-25T06:35:33;102051.19;;;30.08;17.78
77778;BME280;66966;-34.746;138.604;2023-04-25T06:37:58;102046.30;;;30.18;17.79
77778;BME280;66966;-34.746;138.604;2023-04-25T06:40:24;102048.22;;;30.41;17.87
77778;BME280;66966;-34.746;138.604;2023-04-25T06:42:49;102046.65;;;30.30;17.93
77778;BME280;66966;-34.746;138.604;2023-04-25T06:45:15;102045.36;;;30.06;18.01
77778;BME280;66966;-34.746;138.604;2023-04-25T06:47:39;102047.92;;;30.09;17.79
77778;BME280;66966;-34.746;138.604;2023-04-25T06:50:05;102047.73;;;30.05;17.58
77778;BME280;66966;-34.746;138.604;2023-04-25T06:52:29;102047.00;;;30.04;17.25
77778;BME280;66966;-34.746;138.604;2023-04-25T06:54:54;102044.35;;;29.55;17.42
77778;BME280;66966;-34.746;138.604;2023-04-25T06:57:20;102045.28;;;30.43;17.31
77778;BME280;66966;-34.746;138.604;2023-04-25T06:59:44;102044.68;;;30.30;17.11
77778;BME280;66966;-34.746;138.604;2023-04-25T07:02:09;102046.43;;;30.40;17.05
77778;BME280;66966;-34.746;138.604;2023-04-25T07:04:35;102047.78;;;30.10;17.07
77778;BME280;66966;-34.746;138.604;2023-04-25T07:07:00;102052.08;;;30.23;17.20
77778;BME280;66966;-34.746;138.604;2023-04-25T07:09:25;102055.52;;;30.16;17.28
77778;BME280;66966;-34.746;138.604;2023-04-25T07:11:50;102051.75;;;30.36;17.19
77778;BME280;66966;-34.746;138.604;2023-04-25T07:14:16;102053.79;;;29.53;17.22
77778;BME280;66966;-34.746;138.604;2023-04-25T07:16:42;102051.42;;;30.04;16.52
77778;BME280;66966;-34.746;138.604;2023-04-25T07:19:08;102048.28;;;29.90;16.00
77778;BME280;66966;-34.746;138.604;2023-04-25T07:21:34;102047.58;;;30.13;15.59
77778;BME280;66966;-34.746;138.604;2023-04-25T07:24:00;102044.76;;;30.08;15.47
77778;BME280;66966;-34.746;138.604;2023-04-25T07:26:26;102044.40;;;30.07;15.78
77778;BME280;66966;-34.746;138.604;2023-04-25T07:28:51;102047.40;;;30.07;15.95
77778;BME280;66966;-34.746;138.604;2023-04-25T07:31:17;102049.38;;;29.79;16.03
77778;BME280;66966;-34.746;138.604;2023-04-25T07:33:43;102050.61;;;29.92;16.22
77778;BME280;66966;-34.746;138.604;2023-04-25T07:36:09;102046.15;;;29.86;16.31
77778;BME280;66966;-34.746;138.604;2023-04-25T07:38:32;102044.03;;;30.36;16.47
77778;BME280;66966;-34.746;138.604;2023-04-25T07:40:57;102046.09;;;30.08;17.19
77778;BME280;66966;-34.746;138.604;2023-04-25T07:43:22;102053.20;;;29.74;17.69
77778;BME280;66966;-34.746;138.604;2023-04-25T07:45:49;102050.54;;;29.45;18.10
77778;BME280;66966;-34.746;138.604;2023-04-25T07:48:15;102044.03;;;29.18;18.29
77778;BME280;66966;-34.746;138.604;2023-04-25T07:50:38;102050.30;;;29.05;18.59
77778;BME280;66966;-34.746;138.604;2023-04-25T07:53:03;102049.98;;;28.58;18.82
77778;BME280;66966;-34.746;138.604;2023-04-25T07:55:28;102053.17;;;28.90;18.89
77778;BME280;66966;-34.746;138.604;2023-04-25T07:57:54;102054.52;;;28.54;19.02
77778;BME280;66966;-34.746;138.604;2023-04-25T08:00:19;102054.78;;;28.16;19.26
77778;BME280;66966;-34.746;138.604;2023-04-25T08:02:44;102056.36;;;28.25;19.49
77778;BME280;66966;-34.746;138.604;2023-04-25T08:05:09;102052.34;;;28.05;19.56
77778;BME280;66966;-34.746;138.604;2023-04-25T08:07:34;102053.80;;;27.96;19.73
77778;BME280;66966;-34.746;138.604;2023-04-25T08:09:59;102056.28;;;28.09;19.76
77778;BME280;66966;-34.746;138.604;2023-04-25T08:12:24;102057.03;;;27.97;20.25
77778;BME280;66966;-34.746;138.604;2023-04-25T08:14:50;102054.19;;;28.07;20.51
77778;BME280;66966;-34.746;138.604;2023-04-25T08:17:14;102059.96;;;27.70;20.84
77778;BME280;66966;-34.746;138.604;2023-04-25T08:19:40;102064.37;;;27.51;20.64
77778;BME280;66966;-34.746;138.604;2023-04-25T08:22:05;102064.42;;;27.33;20.92
77778;BME280;66966;-34.746;138.604;2023-04-25T08:24:31;102063.96;;;27.38;21.36
77778;BME280;66966;-34.746;138.604;2023-04-25T08:26:56;102064.92;;;27.01;21.41
77778;BME280;66966;-34.746;138.604;2023-04-25T08:29:22;102063.32;;;26.44;21.25
77778;BME280;66966;-34.746;138.604;2023-04-25T10:16:54;102093.36;;;27.04;17.88
77778;BME280;66966;-34.746;138.604;2023-04-25T10:19:19;102090.98;;;28.28;18.08
77778;BME280;66966;-34.746;138.604;2023-04-25T10:21:48;102089.80;;;27.78;19.01
77778;BME280;66966;-34.746;138.604;2023-04-25T10:24:08;102085.04;;;27.00;19.77
77778;BME280;66966;-34.746;138.604;2023-04-25T10:26:33;102079.26;;;26.58;20.39
77778;BME280;66966;-34.746;138.604;2023-04-25T10:28:59;102072.05;;;26.16;20.81
77778;BME280;66966;-34.746;138.604;2023-04-25T10:31:23;102072.70;;;26.09;21.05
77778;BME280;66966;-34.746;138.604;2023-04-25T10:33:50;102072.30;;;26.36;21.35
77778;BME280;66966;-34.746;138.604;2023-04-25T10:36:17;102072.52;;;25.90;21.46
77778;BME280;66966;-34.746;138.604;2023-04-25T10:38:39;102071.48;;;25.76;21.54
77778;BME280;66966;-34.746;138.604;2023-04-25T10:41:05;102068.97;;;25.63;21.65
77778;BME280;66966;-34.746;138.604;2023-04-25T10:43:37;102066.67;;;25.56;21.82
77778;BME280;66966;-34.746;138.604;2023-04-25T10:45:55;102067.03;;;26.01;21.83
77778;BME280;66966;-34.746;138.604;2023-04-25T10:48:25;102064.33;;;25.53;21.85
77778;BME280;66966;-34.746;138.604;2023-04-25T10:50:46;102064.68;;;25.76;22.01
77778;BME280;66966;-34.746;138.604;2023-04-25T10:53:14;102061.56;;;25.52;22.00
77778;BME280;66966;-34.746;138.604;2023-04-25T10:58:01;102060.74;;;25.50;22.08
77778;BME280;66966;-34.746;138.604;2023-04-25T11:00:26;102059.22;;;25.69;22.06
77778;BME280;66966;-34.746;138.604;2023-04-25T11:02:53;102060.21;;;25.41;21.97
77778;BME280;66966;-34.746;138.604;2023-04-25T11:05:23;102058.81;;;25.38;22.13
77778;BME280;66966;-34.746;138.604;2023-04-25T11:07:51;102056.07;;;25.61;22.08
77778;BME280;66966;-34.746;138.604;2023-04-25T11:10:08;102057.76;;;25.38;22.07
77778;BME280;66966;-34.746;138.604;2023-04-25T11:12:32;102061.47;;;25.63;21.97
77778;BME280;66966;-34.746;138.604;2023-04-25T11:15:01;102062.72;;;25.65;21.89
77778;BME280;66966;-34.746;138.604;2023-04-25T11:17:26;102065.41;;;25.65;22.01
77778;BME280;66966;-34.746;138.604;2023-04-25T11:19:50;102060.43;;;25.39;22.04
77778;BME280;66966;-34.746;138.604;2023-04-25T11:22:14;102052.60;;;25.58;22.10
77778;BME280;66966;-34.746;138.604;2023-04-25T11:24:39;102056.41;;;25.29;22.10
77778;BME280;66966;-34.746;138.604;2023-04-25T11:27:05;102052.96;;;25.39;22.31
77778;BME280;66966;-34.746;138.604;2023-04-25T11:29:30;102048.46;;;25.08;22.24
77778;BME280;66966;-34.746;138.604;2023-04-25T11:31:55;102046.87;;;25.27;22.33
77778;BME280;66966;-34.746;138.604;2023-04-25T11:34:20;102045.54;;;25.02;22.36
77778;BME280;66966;-34.746;138.604;2023-04-25T11:36:46;102046.55;;;25.47;22.36
77778;BME280;66966;-34.746;138.604;2023-04-25T11:39:10;102043.62;;;25.22;22.34
77778;BME280;66966;-34.746;138.604;2023-04-25T11:41:38;102042.34;;;25.45;22.39
77778;BME280;66966;-34.746;138.604;2023-04-25T11:44:01;102045.35;;;25.17;22.33
77778;BME280;66966;-34.746;138.604;2023-04-25T11:46:27;102041.33;;;25.33;22.39
77778;BME280;66966;-34.746;138.604;2023-04-25T11:48:52;102042.23;;;25.33;22.40
77778;BME280;66966;-34.746;138.604;2023-04-25T11:51:17;102041.73;;;24.90;22.44
77778;BME280;66966;-34.746;138.604;2023-04-25T11:53:42;102042.65;;;25.08;22.47
77778;BME280;66966;-34.746;138.604;2023-04-25T11:56:11;102043.47;;;25.21;22.51
77778;BME280;66966;-34.746;138.604;2023-04-25T11:58:33;102045.58;;;24.87;22.57
77778;BME280;66966;-34.746;138.604;2023-04-25T12:00:58;102048.51;;;24.87;22.51
77778;BME280;66966;-34.746;138.604;2023-04-25T12:03:23;102051.16;;;25.15;22.52
77778;BME280;66966;-34.746;138.604;2023-04-25T12:05:48;102043.99;;;25.08;22.57
77778;BME280;66966;-34.746;138.604;2023-04-25T12:08:14;102046.72;;;25.08;22.58
77778;BME280;66966;-34.746;138.604;2023-04-25T12:10:40;102051.18;;;25.03;22.55
77778;BME280;66966;-34.746;138.604;2023-04-25T12:15:29;102047.88;;;24.96;22.67
77778;BME280;66966;-34.746;138.604;2023-04-25T12:17:55;102050.27;;;25.04;22.54
77778;BME280;66966;-34.746;138.604;2023-04-25T12:20:21;102052.29;;;25.05;22.52
77778;BME280;66966;-34.746;138.604;2023-04-25T12:22:47;102051.88;;;25.03;22.51
77778;BME280;66966;-34.746;138.604;2023-04-25T12:25:11;102048.80;;;24.77;22.55
77778;BME280;66966;-34.746;138.604;2023-04-25T12:27:36;102049.03;;;24.97;22.52
77778;BME280;66966;-34.746;138.604;2023-04-25T12:30:01;102048.10;;;24.68;22.56
77778;BME280;66966;-34.746;138.604;2023-04-25T12:32:26;102044.76;;;24.98;22.55
77778;BME280;66966;-34.746;138.604;2023-04-25T12:34:52;102040.86;;;24.94;22.62
77778;BME280;66966;-34.746;138.604;2023-04-25T12:37:17;102041.11;;;24.99;22.51
77778;BME280;66966;-34.746;138.604;2023-04-25T12:39:42;102039.51;;;24.98;22.50
77778;BME280;66966;-34.746;138.604;2023-04-25T12:42:08;102034.09;;;24.71;22.55
77778;BME280;66966;-34.746;138.604;2023-04-25T12:44:33;102030.43;;;24.96;22.50
77778;BME280;66966;-34.746;138.604;2023-04-25T12:46:58;102027.41;;;25.00;22.49
77778;BME280;66966;-34.746;138.604;2023-04-25T12:49:23;102020.37;;;24.99;22.54
77778;BME280;66966;-34.746;138.604;2023-04-25T12:51:49;102016.62;;;25.03;22.54
77778;BME280;66966;-34.746;138.604;2023-04-25T12:54:14;102013.81;;;24.76;22.55
77778;BME280;66966;-34.746;138.604;2023-04-25T12:56:40;102011.65;;;24.73;22.56
77778;BME280;66966;-34.746;138.604;2023-04-25T12:59:04;102013.15;;;24.70;22.56
77778;BME280;66966;-34.746;138.604;2023-04-25T13:01:30;102010.02;;;24.66;22.63
77778;BME280;66966;-34.746;138.604;2023-04-25T13:03:55;102009.03;;;24.83;22.65
77778;BME280;66966;-34.746;138.604;2023-04-25T13:06:21;102004.09;;;24.77;22.72
77778;BME280;66966;-34.746;138.604;2023-04-25T13:08:46;101999.91;;;24.72;22.70
77778;BME280;66966;-34.746;138.604;2023-04-25T13:11:11;101999.09;;;24.64;22.81
77778;BME280;66966;-34.746;138.604;2023-04-25T13:13:36;101999.64;;;24.59;22.82
77778;BME280;66966;-34.746;138.604;2023-04-25T13:16:02;101996.43;;;24.78;22.84
77778;BME280;66966;-34.746;138.604;2023-04-25T13:18:27;101990.88;;;24.53;22.81
77778;BME280;66966;-34.746;138.604;2023-04-25T13:20:52;101988.44;;;24.51;22.80
77778;BME280;66966;-34.746;138.604;2023-04-25T13:23:17;101982.99;;;24.76;22.78
77778;BME280;66966;-34.746;138.604;2023-04-25T13:25:43;101978.45;;;24.46;22.79
77778;BME280;66966;-34.746;138.604;2023-04-25T13:28:08;101975.02;;;24.42;22.88
77778;BME280;66966;-34.746;138.604;2023-04-25T13:30:34;101970.74;;;24.36;22.96
77778;BME280;66966;-34.746;138.604;2023-04-25T13:32:59;101966.68;;;24.33;22.89
77778;BME280;66966;-34.746;138.604;2023-04-25T13:35:24;101963.59;;;24.55;22.91
77778;BME280;66966;-34.746;138.604;2023-04-25T13:37:49;101964.33;;;24.77;22.96
77778;BME280;66966;-34.746;138.604;2023-04-25T13:40:15;101961.44;;;24.30;22.97
77778;BME280;66966;-34.746;138.604;2023-04-25T13:42:40;101956.19;;;24.24;22.89
77778;BME280;66966;-34.746;138.604;2023-04-25T13:45:06;101948.24;;;24.20;23.00
77778;BME280;66966;-34.746;138.604;2023-04-25T13:47:31;101942.40;;;24.14;23.08
77778;BME280;66966;-34.746;138.604;2023-04-25T13:49:56;101936.36;;;24.30;23.22
77778;BME280;66966;-34.746;138.604;2023-04-25T13:52:21;101934.36;;;24.05;23.14
77778;BME280;66966;-34.746;138.604;2023-04-25T13:54:46;101931.80;;;24.04;23.20
77778;BME280;66966;-34.746;138.604;2023-04-25T13:57:12;101929.43;;;23.97;23.22
77778;BME280;66966;-34.746;138.604;2023-04-25T13:59:38;101924.72;;;24.18;23.29